Nearby METAR Reports

 

KHQM - Hoquiam,WA, USA
Updated: 01/21/2019 5:53am
Mist, Clear
Mist, Clear
 Wind from NE
Wind: NE 5 mph , 7 km/h
Temperature: 36°F , 2°C
Wind Chill: 32°F , 0°C
Dew Point: 36°F , 2°C
Humidity: 100%
Barometer: 30.15 inHg , 1021 hPa
Summary: Mist
Clouds: Clear
Visibility: 2 1/2 miles , 4 km
2019/01/21 13:53 KHQM 211353Z AUTO 05004KT 2 1/2SM BR CLR 02/02 A3015 RMK AO2 SLP214 T00220017 $